createdAt,value
2022-09-30T00:01:21.633Z,10.30
2022-09-30T00:03:49.255Z,10.30
2022-09-30T00:06:15.556Z,10.28
2022-09-30T00:08:41.791Z,10.20
2022-09-30T00:11:08.066Z,10.22
2022-09-30T00:13:34.306Z,10.15
2022-09-30T00:16:00.662Z,10.11
2022-09-30T00:18:26.980Z,10.19
2022-09-30T00:20:53.242Z,10.19
2022-09-30T00:23:19.527Z,10.19
2022-09-30T00:25:45.783Z,10.21
2022-09-30T00:28:12.044Z,10.23
2022-09-30T00:30:38.310Z,10.07
2022-09-30T00:33:04.554Z,10.14
2022-09-30T00:35:30.811Z,10.17
2022-09-30T00:37:57.096Z,10.17
2022-09-30T00:40:23.355Z,10.20
2022-09-30T00:42:49.633Z,10.16
2022-09-30T00:45:17.977Z,10.18
2022-09-30T00:47:44.334Z,10.13
2022-09-30T00:50:10.588Z,10.16
2022-09-30T00:52:36.865Z,10.15
2022-09-30T00:55:03.165Z,10.18
2022-09-30T00:57:29.434Z,10.14
2022-09-30T00:59:55.674Z,10.12
2022-09-30T01:02:21.964Z,10.10
2022-09-30T01:04:48.244Z,10.06
2022-09-30T01:07:15.042Z,10.02
2022-09-30T01:09:41.434Z,9.99
2022-09-30T01:12:07.732Z,10.01
2022-09-30T01:14:34.000Z,10.06
2022-09-30T01:17:00.590Z,10.10
2022-09-30T01:19:27.276Z,10.11
2022-09-30T01:21:53.540Z,10.13
2022-09-30T01:24:19.790Z,10.04
2022-09-30T01:26:46.155Z,10.09
2022-09-30T01:29:12.408Z,10.13
2022-09-30T01:31:43.483Z,10.14
2022-09-30T01:34:09.811Z,10.11
2022-09-30T01:36:36.203Z,10.05
2022-09-30T01:39:02.460Z,10.09
2022-09-30T01:41:28.768Z,10.12
2022-09-30T01:43:55.018Z,10.13
2022-09-30T01:46:21.336Z,10.12
2022-09-30T01:48:47.659Z,9.84
2022-09-30T01:51:13.911Z,9.58
2022-09-30T01:53:40.165Z,9.66
2022-09-30T01:56:06.408Z,9.80
2022-09-30T01:58:32.675Z,9.86
2022-09-30T02:00:59.594Z,9.90
2022-09-30T02:03:26.024Z,9.93
2022-09-30T02:05:53.326Z,9.94
2022-09-30T02:08:19.591Z,9.80
2022-09-30T02:10:45.852Z,9.83
2022-09-30T02:13:12.248Z,9.79
2022-09-30T02:15:40.534Z,9.82
2022-09-30T02:18:07.396Z,9.83
2022-09-30T02:20:33.707Z,9.88
2022-09-30T02:22:59.958Z,9.92
2022-09-30T02:25:27.165Z,9.94
2022-09-30T02:27:53.383Z,9.97
2022-09-30T02:30:19.635Z,9.95
2022-09-30T02:32:45.884Z,9.79
2022-09-30T02:35:12.130Z,9.82
2022-09-30T02:37:38.406Z,9.85
2022-09-30T02:40:05.119Z,9.89
2022-09-30T02:42:31.372Z,9.91
2022-09-30T02:44:57.606Z,9.91
2022-09-30T02:47:24.020Z,9.93
2022-09-30T02:49:50.297Z,9.89
2022-09-30T02:52:16.786Z,9.85
2022-09-30T02:54:43.431Z,9.78
2022-09-30T02:57:09.769Z,9.79
2022-09-30T02:59:36.023Z,9.82
2022-09-30T03:02:02.349Z,9.82
2022-09-30T03:04:28.677Z,9.67
2022-09-30T03:06:54.922Z,9.68
2022-09-30T03:09:21.369Z,9.60
2022-09-30T03:11:47.685Z,9.66
2022-09-30T03:14:13.931Z,9.70
2022-09-30T03:16:40.227Z,9.72
2022-09-30T03:19:06.552Z,9.74
2022-09-30T03:21:32.812Z,9.74
2022-09-30T03:23:59.083Z,9.72
2022-09-30T03:26:25.327Z,9.72
2022-09-30T03:28:51.694Z,9.67
2022-09-30T03:31:18.007Z,9.36
2022-09-30T03:33:44.315Z,9.39
2022-09-30T03:36:10.568Z,9.50
2022-09-30T03:38:36.836Z,9.55
2022-09-30T03:41:03.075Z,9.60
2022-09-30T03:43:29.334Z,9.46
2022-09-30T03:45:55.591Z,9.46
2022-09-30T03:48:21.847Z,9.48
2022-09-30T03:50:48.095Z,9.55
2022-09-30T03:53:14.351Z,9.59
2022-09-30T03:55:40.609Z,9.64
2022-09-30T03:58:07.484Z,9.67
2022-09-30T04:00:33.778Z,9.66
2022-09-30T04:03:00.038Z,9.68
2022-09-30T04:05:26.286Z,9.67
2022-09-30T04:07:52.534Z,9.67
2022-09-30T04:10:18.778Z,9.63
2022-09-30T04:12:45.022Z,9.56
2022-09-30T04:15:11.381Z,9.64
2022-09-30T04:17:37.670Z,9.67
2022-09-30T04:20:03.931Z,9.68
2022-09-30T04:22:30.202Z,9.63
2022-09-30T04:24:56.462Z,9.57
2022-09-30T04:27:23.182Z,9.55
2022-09-30T04:29:49.438Z,9.52
2022-09-30T04:32:15.683Z,9.47
2022-09-30T04:34:41.934Z,9.40
2022-09-30T04:37:11.055Z,9.36
2022-09-30T04:39:37.497Z,9.34
2022-09-30T04:42:03.761Z,9.33
2022-09-30T04:44:30.131Z,9.31
2022-09-30T04:46:56.388Z,9.25
2022-09-30T04:49:23.857Z,9.17
2022-09-30T04:51:50.230Z,9.06
2022-09-30T04:54:16.514Z,8.94
2022-09-30T04:56:43.168Z,8.90
2022-09-30T04:59:09.432Z,8.94
2022-09-30T05:01:35.770Z,8.91
2022-09-30T05:04:02.014Z,8.94
2022-09-30T05:06:28.287Z,8.93
2022-09-30T05:08:54.548Z,8.90
2022-09-30T05:11:20.851Z,8.87
2022-09-30T05:13:47.100Z,8.81
2022-09-30T05:16:13.493Z,8.77
2022-09-30T05:18:41.984Z,8.76
2022-09-30T05:21:08.261Z,8.68
2022-09-30T05:23:34.525Z,8.70
2022-09-30T05:26:00.807Z,8.71
2022-09-30T05:28:27.053Z,8.54
2022-09-30T05:30:53.370Z,8.53
2022-09-30T05:33:19.639Z,8.60
2022-09-30T05:35:45.878Z,8.46
2022-09-30T05:38:12.137Z,8.61
2022-09-30T05:40:39.379Z,8.68
2022-09-30T05:43:05.660Z,8.71
2022-09-30T05:45:31.900Z,8.81
2022-09-30T05:47:58.149Z,8.87
2022-09-30T05:50:24.403Z,8.92
2022-09-30T05:52:50.664Z,8.96
2022-09-30T05:55:17.285Z,8.97
2022-09-30T05:57:43.602Z,9.02
2022-09-30T06:00:09.855Z,9.09
2022-09-30T06:02:38.514Z,9.17
2022-09-30T06:05:04.881Z,9.04
2022-09-30T06:07:31.131Z,9.14
2022-09-30T06:09:57.389Z,9.23
2022-09-30T06:12:23.728Z,9.21
2022-09-30T06:14:49.986Z,9.24
2022-09-30T06:17:18.534Z,9.28
2022-09-30T06:19:44.791Z,9.31
2022-09-30T06:22:11.052Z,9.36
2022-09-30T06:24:37.512Z,9.47
2022-09-30T06:27:04.373Z,9.43
2022-09-30T06:29:30.622Z,9.53
2022-09-30T06:31:56.951Z,9.64
2022-09-30T06:34:23.690Z,9.69
2022-09-30T06:36:49.960Z,9.75
2022-09-30T06:39:16.204Z,9.80
2022-09-30T06:41:43.990Z,9.83
2022-09-30T06:44:10.440Z,9.95
2022-09-30T06:46:46.545Z,10.01
2022-09-30T06:49:17.322Z,10.05
2022-09-30T06:51:43.592Z,10.09
2022-09-30T06:54:09.849Z,10.13
2022-09-30T06:56:36.710Z,10.19
2022-09-30T06:59:02.960Z,10.40
2022-09-30T07:01:30.034Z,10.55
2022-09-30T07:03:57.825Z,10.59
2022-09-30T07:06:24.103Z,10.54
2022-09-30T07:08:51.558Z,10.59
2022-09-30T07:11:17.807Z,10.79
2022-09-30T07:13:45.100Z,11.12
2022-09-30T07:16:12.138Z,10.90
2022-09-30T07:18:38.432Z,11.12
2022-09-30T07:21:04.682Z,11.07
2022-09-30T07:23:31.985Z,10.96
2022-09-30T07:25:58.779Z,11.01
2022-09-30T07:28:28.009Z,11.13
2022-09-30T07:31:13.503Z,11.17
2022-09-30T07:33:42.593Z,11.46
2022-09-30T07:36:08.980Z,11.40
2022-09-30T07:38:36.212Z,11.35
2022-09-30T07:41:02.787Z,11.58
2022-09-30T07:43:34.909Z,11.52
2022-09-30T07:48:51.974Z,11.61
2022-09-30T07:51:18.196Z,11.59
2022-09-30T07:53:44.438Z,11.48
2022-09-30T07:56:10.704Z,11.27
2022-09-30T07:58:37.017Z,11.48
2022-09-30T08:01:03.545Z,11.42
2022-09-30T08:03:29.842Z,11.49
2022-09-30T08:05:56.105Z,11.79
2022-09-30T08:08:22.386Z,11.71
2022-09-30T08:10:48.641Z,11.72
2022-09-30T08:13:16.576Z,11.80
2022-09-30T08:15:42.845Z,11.98
2022-09-30T08:18:09.101Z,12.12
2022-09-30T08:20:35.379Z,12.26
2022-09-30T08:23:01.669Z,12.19
2022-09-30T08:25:28.190Z,12.02
2022-09-30T08:27:54.427Z,12.27
2022-09-30T08:30:20.709Z,12.38
2022-09-30T08:32:46.962Z,12.40
2022-09-30T08:35:13.233Z,12.74
2022-09-30T08:37:39.500Z,12.45
2022-09-30T08:40:05.784Z,12.74
2022-09-30T08:42:37.141Z,12.76
2022-09-30T08:45:04.029Z,12.87
2022-09-30T08:47:30.688Z,12.99
2022-09-30T08:49:56.947Z,13.06
2022-09-30T08:52:30.617Z,13.01
2022-09-30T08:55:09.979Z,13.29
2022-09-30T08:57:36.226Z,13.38
2022-09-30T09:00:06.436Z,13.45
2022-09-30T09:02:32.762Z,13.29
2022-09-30T09:04:59.030Z,13.70
2022-09-30T09:07:25.287Z,13.64
2022-09-30T09:09:52.193Z,13.53
2022-09-30T09:12:18.524Z,13.51
2022-09-30T09:14:44.798Z,13.56
2022-09-30T09:17:15.444Z,13.90
2022-09-30T09:19:42.289Z,13.63
2022-09-30T09:22:08.545Z,14.16
2022-09-30T09:24:34.798Z,14.28
2022-09-30T09:27:01.059Z,14.16
2022-09-30T09:29:27.437Z,14.23
2022-09-30T09:31:53.725Z,14.45
2022-09-30T09:34:20.042Z,14.61
2022-09-30T09:36:46.308Z,14.72
2022-09-30T09:39:12.695Z,14.73
2022-09-30T09:41:39.173Z,15.12
2022-09-30T09:44:05.423Z,14.95
2022-09-30T09:46:31.710Z,14.59
2022-09-30T09:48:57.989Z,14.98
2022-09-30T09:51:24.239Z,15.15
2022-09-30T09:53:50.535Z,15.31
2022-09-30T09:56:18.872Z,15.11
2022-09-30T09:58:45.185Z,15.28
2022-09-30T10:01:26.518Z,15.07
2022-09-30T10:03:52.840Z,14.88
2022-09-30T10:06:19.121Z,15.48
2022-09-30T10:08:45.370Z,15.79
2022-09-30T10:11:11.624Z,15.65
2022-09-30T10:13:37.974Z,15.77
2022-09-30T10:16:04.283Z,16.15
2022-09-30T10:18:30.554Z,16.18
2022-09-30T10:20:56.819Z,16.31
2022-09-30T10:23:23.070Z,16.45
2022-09-30T10:25:49.333Z,16.37
2022-09-30T10:28:15.679Z,15.99
2022-09-30T10:30:42.001Z,16.10
2022-09-30T10:33:08.259Z,16.35
2022-09-30T10:35:34.520Z,16.26
2022-09-30T10:38:00.924Z,16.52
2022-09-30T10:40:27.489Z,16.70
2022-09-30T10:42:53.739Z,16.81
2022-09-30T10:45:20.027Z,16.61
2022-09-30T10:47:46.281Z,16.74
2022-09-30T10:50:12.534Z,16.86
2022-09-30T10:52:38.796Z,16.83
2022-09-30T10:55:09.061Z,16.65
2022-09-30T10:57:40.144Z,17.01
2022-09-30T11:00:09.547Z,17.01
2022-09-30T11:02:35.814Z,17.41
2022-09-30T11:05:02.100Z,17.00
2022-09-30T11:07:28.427Z,16.72
2022-09-30T11:09:54.670Z,16.94
2022-09-30T11:12:21.074Z,17.01
2022-09-30T11:14:47.331Z,17.04
2022-09-30T11:17:13.607Z,17.20
2022-09-30T11:19:39.867Z,17.24
2022-09-30T11:22:06.751Z,16.94
2022-09-30T11:24:33.042Z,16.67
2022-09-30T11:26:59.323Z,16.72
2022-09-30T11:29:25.575Z,16.79
2022-09-30T11:31:51.919Z,17.14
2022-09-30T11:34:18.213Z,17.20
2022-09-30T11:36:44.495Z,17.30
2022-09-30T11:39:10.781Z,17.39
2022-09-30T11:41:37.036Z,17.42
2022-09-30T11:44:03.349Z,17.49
2022-09-30T11:46:30.150Z,17.14
2022-09-30T11:48:56.498Z,17.36
2022-09-30T11:51:23.775Z,17.39
2022-09-30T11:53:50.015Z,17.18
2022-09-30T11:56:16.308Z,17.46
2022-09-30T11:58:42.711Z,17.53
2022-09-30T12:01:09.016Z,17.64
2022-09-30T12:03:35.343Z,17.62
2022-09-30T12:06:01.670Z,17.51
2022-09-30T12:08:28.036Z,17.54
2022-09-30T12:10:54.287Z,17.56
2022-09-30T12:13:20.635Z,17.57
2022-09-30T12:15:47.126Z,17.63
2022-09-30T12:18:13.425Z,17.74
2022-09-30T12:20:39.689Z,17.66
2022-09-30T12:23:06.094Z,17.63
2022-09-30T12:25:33.176Z,17.76
2022-09-30T12:27:59.431Z,17.95
2022-09-30T12:30:25.719Z,17.80
2022-09-30T12:32:51.982Z,17.69
2022-09-30T12:35:19.650Z,17.50
2022-09-30T12:37:45.933Z,17.59
2022-09-30T12:40:13.153Z,17.63
2022-09-30T12:42:39.347Z,17.77
2022-09-30T12:45:05.678Z,17.81
2022-09-30T12:47:31.947Z,17.72
2022-09-30T12:49:58.439Z,17.91
2022-09-30T12:52:24.682Z,17.84
2022-09-30T12:54:51.002Z,17.73
2022-09-30T12:57:17.256Z,17.80
2022-09-30T12:59:43.696Z,17.56
2022-09-30T13:02:10.094Z,17.84
2022-09-30T13:04:36.520Z,17.75
2022-09-30T13:07:02.796Z,17.87
2022-09-30T13:09:29.053Z,17.92
2022-09-30T13:11:55.313Z,17.86
2022-09-30T13:14:25.831Z,17.94
2022-09-30T13:16:54.840Z,18.14
2022-09-30T13:19:21.416Z,18.15
2022-09-30T13:21:48.057Z,18.04
2022-09-30T13:24:14.328Z,18.03
2022-09-30T13:26:40.651Z,17.82
2022-09-30T13:29:06.908Z,17.90
2022-09-30T13:31:33.497Z,17.87
2022-09-30T13:34:02.836Z,17.84
2022-09-30T13:36:29.884Z,17.79
2022-09-30T13:38:56.379Z,17.85
2022-09-30T13:41:24.744Z,17.82
2022-09-30T13:43:51.046Z,17.86
2022-09-30T13:46:42.792Z,17.92
2022-09-30T13:49:09.055Z,18.14
2022-09-30T13:51:35.316Z,18.14
2022-09-30T13:54:01.752Z,18.14
2022-09-30T13:56:28.216Z,18.08
2022-09-30T13:58:56.610Z,18.00
2022-09-30T14:01:22.903Z,18.08
2022-09-30T14:03:49.267Z,18.18
2022-09-30T14:06:15.577Z,18.13
2022-09-30T14:08:41.852Z,18.00
2022-09-30T14:11:08.113Z,18.02
2022-09-30T14:13:34.371Z,18.05
2022-09-30T14:16:01.699Z,17.81
2022-09-30T14:18:29.556Z,17.75
2022-09-30T14:20:57.916Z,17.91
2022-09-30T14:23:24.368Z,17.97
2022-09-30T14:25:50.623Z,18.07
2022-09-30T14:28:16.905Z,18.12
2022-09-30T14:31:03.144Z,18.02
2022-09-30T14:33:31.412Z,18.04
2022-09-30T14:35:57.680Z,17.90
2022-09-30T14:38:26.228Z,17.99
2022-09-30T14:40:52.496Z,17.99
2022-09-30T14:43:18.854Z,17.94
2022-09-30T14:45:45.150Z,17.74
2022-09-30T14:48:11.706Z,17.62
2022-09-30T14:50:37.988Z,17.70
2022-09-30T14:53:04.418Z,17.59
2022-09-30T14:55:30.736Z,17.66
2022-09-30T14:57:58.756Z,17.73
2022-09-30T15:00:25.814Z,17.81
2022-09-30T15:02:52.058Z,17.75
2022-09-30T15:05:18.418Z,17.80
2022-09-30T15:07:44.663Z,17.75
2022-09-30T15:10:11.012Z,17.78
2022-09-30T15:12:37.733Z,17.75
2022-09-30T15:15:04.052Z,17.77
2022-09-30T15:17:30.316Z,17.73
2022-09-30T15:19:56.580Z,17.69
2022-09-30T15:22:22.890Z,17.63
2022-09-30T15:24:49.167Z,17.60
2022-09-30T15:27:15.702Z,17.60
2022-09-30T15:29:42.140Z,17.59
2022-09-30T15:32:12.333Z,17.57
2022-09-30T15:34:38.623Z,17.59
2022-09-30T15:37:07.863Z,17.63
2022-09-30T15:39:52.963Z,17.68
2022-09-30T15:42:20.108Z,17.69
2022-09-30T15:44:46.351Z,17.67
2022-09-30T15:47:12.659Z,17.67
2022-09-30T15:49:40.634Z,17.58
2022-09-30T15:52:06.804Z,17.50
2022-09-30T15:54:33.098Z,17.43
2022-09-30T15:57:00.207Z,17.41
2022-09-30T15:59:26.478Z,17.40
2022-09-30T16:01:52.806Z,17.39
2022-09-30T16:04:19.062Z,17.38
2022-09-30T16:06:45.376Z,17.38
2022-09-30T16:09:11.637Z,17.28
2022-09-30T16:11:40.931Z,17.29
2022-09-30T16:14:07.200Z,17.26
2022-09-30T16:16:33.807Z,17.27
2022-09-30T16:19:01.182Z,17.24
2022-09-30T16:21:27.390Z,17.22
2022-09-30T16:23:54.523Z,17.13
2022-09-30T16:26:21.585Z,16.90
2022-09-30T16:28:47.779Z,16.73
2022-09-30T16:31:14.123Z,16.80
2022-09-30T16:33:40.433Z,16.77
2022-09-30T16:36:06.679Z,16.66
2022-09-30T16:38:32.994Z,16.63
2022-09-30T16:41:00.429Z,16.60
2022-09-30T16:43:26.937Z,16.50
2022-09-30T16:45:53.268Z,16.39
2022-09-30T16:48:21.195Z,16.32
2022-09-30T16:50:47.450Z,16.23
2022-09-30T16:53:13.816Z,16.00
2022-09-30T16:55:40.677Z,15.95
2022-09-30T16:58:06.932Z,15.85
2022-09-30T17:00:33.422Z,15.60
2022-09-30T17:02:59.696Z,15.66
2022-09-30T17:05:25.947Z,15.65
2022-09-30T17:07:52.194Z,15.59
2022-09-30T17:10:18.486Z,15.53
2022-09-30T17:12:44.739Z,15.49
2022-09-30T17:15:11.612Z,15.44
2022-09-30T17:17:38.115Z,15.40
2022-09-30T17:20:04.514Z,15.42
2022-09-30T17:22:30.776Z,15.36
2022-09-30T17:24:57.028Z,15.30
2022-09-30T17:27:23.303Z,15.25
2022-09-30T17:29:49.567Z,15.10
2022-09-30T17:32:15.810Z,15.01
2022-09-30T17:34:42.099Z,14.98
2022-09-30T17:39:39.544Z,14.92
2022-09-30T17:42:24.671Z,14.88
2022-09-30T17:44:51.153Z,14.80
2022-09-30T17:47:17.412Z,14.73
2022-09-30T17:49:43.662Z,14.59
2022-09-30T17:52:09.912Z,14.53
2022-09-30T17:54:36.188Z,14.46
2022-09-30T17:57:02.440Z,14.46
2022-09-30T17:59:28.933Z,14.41
2022-09-30T18:01:56.351Z,14.31
2022-09-30T18:04:24.548Z,14.32
2022-09-30T18:06:50.999Z,14.32
2022-09-30T18:09:17.299Z,14.28
2022-09-30T18:11:44.542Z,14.20
2022-09-30T18:14:11.066Z,14.22
2022-09-30T18:16:37.445Z,14.16
2022-09-30T18:19:03.855Z,13.95
2022-09-30T18:21:30.613Z,14.09
2022-09-30T18:24:03.212Z,14.12
2022-09-30T18:26:33.650Z,14.11
2022-09-30T18:29:02.104Z,14.08
2022-09-30T18:31:28.858Z,13.77
2022-09-30T18:33:55.563Z,13.65
2022-09-30T18:36:21.858Z,13.84
2022-09-30T18:38:48.244Z,13.93
2022-09-30T18:41:15.555Z,13.95
2022-09-30T18:43:44.400Z,13.91
2022-09-30T18:46:10.787Z,13.86
2022-09-30T18:48:37.105Z,13.85
2022-09-30T18:51:03.425Z,13.83
2022-09-30T18:53:34.440Z,13.78
2022-09-30T18:56:01.537Z,13.72
2022-09-30T18:58:28.262Z,13.71
2022-09-30T19:00:54.711Z,13.65
2022-09-30T19:03:21.275Z,13.61
2022-09-30T19:05:47.527Z,13.51
2022-09-30T19:08:13.823Z,13.49
2022-09-30T19:10:40.375Z,13.41
2022-09-30T19:13:06.634Z,13.19
2022-09-30T19:15:32.918Z,13.24
2022-09-30T19:17:59.836Z,13.25
2022-09-30T19:20:26.112Z,13.21
2022-09-30T19:22:52.412Z,13.21
2022-09-30T19:25:22.484Z,13.19
2022-09-30T19:27:49.413Z,13.13
2022-09-30T19:30:16.066Z,13.13
2022-09-30T19:32:42.556Z,13.05
2022-09-30T19:35:17.242Z,12.98
2022-09-30T19:37:55.002Z,13.00
2022-09-30T19:40:26.522Z,12.93
2022-09-30T19:42:52.794Z,12.94
2022-09-30T19:45:25.952Z,12.89
2022-09-30T19:47:52.608Z,12.85
2022-09-30T19:50:18.906Z,12.78
2022-09-30T19:52:55.113Z,12.72
2022-09-30T19:55:22.860Z,12.64
2022-09-30T19:57:49.112Z,12.58
2022-09-30T20:00:15.414Z,12.49
2022-09-30T20:02:41.976Z,12.46
2022-09-30T20:05:08.290Z,12.45
2022-09-30T20:07:35.227Z,12.45
2022-09-30T20:10:01.543Z,12.33
2022-09-30T20:12:27.975Z,12.32
2022-09-30T20:15:13.007Z,12.23
2022-09-30T20:17:39.714Z,12.20
2022-09-30T20:20:24.806Z,11.97
2022-09-30T20:22:51.098Z,12.08
2022-09-30T20:25:17.366Z,12.05
2022-09-30T20:27:49.809Z,11.97
2022-09-30T20:30:18.594Z,12.00
2022-09-30T20:32:45.038Z,12.00
2022-09-30T20:35:11.486Z,12.03
2022-09-30T20:37:39.504Z,11.98
2022-09-30T20:40:05.987Z,11.98
2022-09-30T20:42:32.606Z,11.97
2022-09-30T20:45:02.024Z,11.89
2022-09-30T20:47:28.296Z,11.73
2022-09-30T20:49:54.550Z,11.71
2022-09-30T20:52:20.810Z,11.57
2022-09-30T20:54:47.060Z,11.60
2022-09-30T20:57:13.314Z,11.59
2022-09-30T20:59:39.591Z,11.52
2022-09-30T21:02:07.035Z,11.40
2022-09-30T21:04:33.359Z,11.52
2022-09-30T21:06:59.829Z,11.34
2022-09-30T21:09:26.071Z,11.38
2022-09-30T21:11:52.492Z,11.35
2022-09-30T21:14:19.313Z,11.30
2022-09-30T21:16:45.641Z,11.16
2022-09-30T21:19:11.896Z,11.23
2022-09-30T21:21:38.299Z,11.16
2022-09-30T21:24:04.542Z,11.21
2022-09-30T21:26:31.087Z,11.12
2022-09-30T21:28:57.352Z,10.87
2022-09-30T21:31:23.960Z,11.07
2022-09-30T21:33:50.392Z,11.10
2022-09-30T21:36:17.023Z,10.96
2022-09-30T21:38:43.283Z,10.89
2022-09-30T21:41:09.558Z,10.96
2022-09-30T21:43:36.254Z,10.94
2022-09-30T21:46:02.589Z,10.93
2022-09-30T21:48:33.058Z,10.90
2022-09-30T21:50:59.338Z,10.77
2022-09-30T21:53:28.652Z,10.78
2022-09-30T21:55:54.906Z,10.74
2022-09-30T21:58:21.202Z,10.46
2022-09-30T22:00:47.515Z,10.37
2022-09-30T22:03:14.242Z,10.56
2022-09-30T22:05:40.486Z,10.53
2022-09-30T22:08:06.791Z,10.57
2022-09-30T22:10:33.044Z,10.58
2022-09-30T22:12:59.320Z,10.44
2022-09-30T22:15:25.578Z,10.50
2022-09-30T22:17:51.867Z,10.51
2022-09-30T22:20:19.627Z,10.53
2022-09-30T22:22:48.068Z,10.50
2022-09-30T22:25:15.576Z,10.49
2022-09-30T22:27:41.843Z,10.46
2022-09-30T22:30:08.101Z,10.40
2022-09-30T22:32:34.357Z,10.40
2022-09-30T22:35:19.381Z,10.21
2022-09-30T22:38:04.288Z,10.34
2022-09-30T22:40:30.535Z,10.34
2022-09-30T22:42:57.206Z,10.30
2022-09-30T22:45:23.763Z,10.28
2022-09-30T22:47:50.078Z,10.11
2022-09-30T22:50:19.518Z,10.13
2022-09-30T22:52:46.393Z,10.07
2022-09-30T22:55:13.360Z,10.02
2022-09-30T22:57:39.655Z,10.00
2022-09-30T23:00:06.208Z,10.01
2022-09-30T23:02:32.513Z,9.73
2022-09-30T23:04:59.035Z,9.87
2022-09-30T23:07:25.288Z,9.83
2022-09-30T23:09:51.546Z,9.88
2022-09-30T23:12:18.224Z,9.92
2022-09-30T23:14:44.839Z,9.92
2022-09-30T23:17:12.980Z,9.95
2022-09-30T23:19:39.196Z,9.90
2022-09-30T23:22:05.507Z,9.81
2022-09-30T23:24:31.820Z,9.86
2022-09-30T23:26:58.078Z,9.82
2022-09-30T23:29:24.812Z,9.82
2022-09-30T23:31:51.106Z,9.81
2022-09-30T23:34:17.399Z,9.57
2022-09-30T23:36:43.665Z,9.72
2022-09-30T23:39:12.224Z,9.70
2022-09-30T23:41:38.482Z,9.71
2022-09-30T23:44:04.778Z,9.68
2022-09-30T23:46:31.110Z,9.48
2022-09-30T23:48:57.360Z,9.35
2022-09-30T23:51:24.198Z,9.19
2022-09-30T23:53:50.562Z,9.36
2022-09-30T23:56:16.847Z,9.32
2022-09-30T23:58:43.688Z,9.39
